createdAt,value
2023-04-15T00:00:07.493Z,7.6
2023-04-15T00:05:06.712Z,4.4
2023-04-15T00:10:06.968Z,7.2
2023-04-15T00:15:06.659Z,25.8
2023-04-15T00:20:06.413Z,8.8
2023-04-15T00:25:07.286Z,5.4
2023-04-15T00:30:06.501Z,8
2023-04-15T00:35:06.389Z,8.3
2023-04-15T00:40:06.853Z,5
2023-04-15T00:45:06.985Z,6.2
2023-04-15T00:50:06.457Z,5.8
2023-04-15T00:55:06.607Z,3.7
2023-04-15T01:00:06.983Z,2.3
2023-04-15T01:05:06.554Z,4.7
2023-04-15T01:10:07.148Z,5.1
2023-04-15T01:15:06.522Z,3.2
2023-04-15T01:20:06.840Z,3.8
2023-04-15T01:25:07.198Z,1.9
2023-04-15T01:30:06.355Z,5.1
2023-04-15T01:35:06.595Z,10.8
2023-04-15T01:40:06.730Z,5.2
2023-04-15T01:45:07.030Z,6.2
2023-04-15T01:50:06.258Z,4.1
2023-04-15T01:55:06.486Z,14.2
2023-04-15T02:00:06.856Z,4.5
2023-04-15T02:05:07.181Z,8.2
2023-04-15T02:10:07.207Z,15.2
2023-04-15T02:15:06.372Z,6.2
2023-04-15T02:20:06.547Z,7.5
2023-04-15T02:25:06.745Z,8.7
2023-04-15T02:30:06.987Z,19.4
2023-04-15T02:35:07.172Z,8.9
2023-04-15T02:40:06.304Z,10.6
2023-04-15T02:45:06.400Z,9.2
2023-04-15T02:50:06.550Z,7.1
2023-04-15T02:55:06.875Z,5.4
2023-04-15T03:00:07.164Z,3.3
2023-04-15T03:05:06.944Z,9.8
2023-04-15T03:10:07.203Z,5.4
2023-04-15T03:15:06.292Z,4.5
2023-04-15T03:20:06.558Z,5.4
2023-04-15T03:25:06.818Z,13.1
2023-04-15T03:30:06.967Z,4.1
2023-04-15T03:35:07.320Z,4.5
2023-04-15T03:40:07.413Z,11.2
2023-04-15T03:45:07.187Z,4.6
2023-04-15T03:50:07.028Z,2.9
2023-04-15T03:55:06.931Z,4.8
2023-04-15T04:00:07.052Z,11.2
2023-04-15T04:05:06.992Z,11.2
2023-04-15T04:10:07.226Z,17.7
2023-04-15T04:15:06.250Z,11.9
2023-04-15T04:20:07.248Z,18.3
2023-04-15T04:25:07.054Z,9.9
2023-04-15T04:30:07.166Z,19.3
2023-04-15T04:35:06.519Z,21.4
2023-04-15T04:40:06.824Z,14.2
2023-04-15T04:45:07.175Z,9.8
2023-04-15T04:50:06.378Z,9.3
2023-04-15T04:55:06.689Z,13.9
2023-04-15T05:00:06.940Z,10
2023-04-15T05:05:06.427Z,8.5
2023-04-15T05:10:06.879Z,12
2023-04-15T05:15:06.991Z,5.2
2023-04-15T05:20:06.235Z,19.8
2023-04-15T05:25:06.538Z,5.5
2023-04-15T05:30:06.739Z,12.5
2023-04-15T05:35:06.617Z,11.6
2023-04-15T05:40:07.210Z,14.3
2023-04-15T05:45:06.490Z,18.9
2023-04-15T05:50:06.700Z,19.4
2023-04-15T05:55:06.925Z,17.1
2023-04-15T06:00:07.304Z,17.3
2023-04-15T06:05:06.793Z,12.7
2023-04-15T06:10:07.186Z,15.7
2023-04-15T06:15:06.400Z,17.9
2023-04-15T06:20:06.577Z,21.1
2023-04-15T06:25:06.574Z,19.3
2023-04-15T06:30:06.618Z,24.3
2023-04-15T06:35:06.945Z,17.1
2023-04-15T06:40:07.079Z,20.2
2023-04-15T06:45:06.191Z,12.7
2023-04-15T06:50:06.308Z,22.5
2023-04-15T06:55:06.472Z,9.9
2023-04-15T07:00:06.977Z,10.9
2023-04-15T07:05:07.015Z,7.9
2023-04-15T07:10:06.974Z,6.7
2023-04-15T07:15:06.363Z,8.6
2023-04-15T07:20:06.761Z,9.7
2023-04-15T07:25:06.959Z,9.2
2023-04-15T07:30:06.304Z,9.1
2023-04-15T07:35:06.439Z,8.9
2023-04-15T07:40:06.805Z,12.1
2023-04-15T07:45:06.905Z,8.4
2023-04-15T07:50:06.981Z,15.8
2023-04-15T07:55:07.006Z,6.7
2023-04-15T08:00:06.371Z,12.6
2023-04-15T08:05:06.829Z,4.3
2023-04-15T08:10:07.073Z,5.4
2023-04-15T08:15:07.113Z,17
2023-04-15T08:20:06.392Z,13.6
2023-04-15T08:25:06.595Z,2.9
2023-04-15T08:30:07.066Z,3.6
2023-04-15T08:35:06.995Z,3.5
2023-04-15T08:40:07.167Z,13.3
2023-04-15T08:45:07.052Z,3.7
2023-04-15T08:50:07.161Z,5.6
2023-04-15T08:55:06.812Z,5.1
2023-04-15T09:00:06.785Z,6.7
2023-04-15T09:05:06.306Z,3.7
2023-04-15T09:10:06.554Z,2.4
2023-04-15T09:15:06.733Z,8.4
2023-04-15T09:20:07.189Z,9.5
2023-04-15T09:25:06.654Z,4.4
2023-04-15T09:30:06.571Z,4.9
2023-04-15T09:35:06.757Z,3.8
2023-04-15T09:40:06.910Z,3.8
2023-04-15T09:45:07.055Z,5.5
2023-04-15T09:50:06.257Z,3.7
2023-04-15T09:55:06.543Z,4.8
2023-04-15T10:00:06.867Z,3
2023-04-15T10:05:06.417Z,3.9
2023-04-15T10:10:07.239Z,5.7
2023-04-15T10:15:06.353Z,2.4
2023-04-15T10:20:06.475Z,2.3
2023-04-15T10:25:06.937Z,1.5
2023-04-15T10:30:07.224Z,2
2023-04-15T10:35:06.696Z,2.3
2023-04-15T10:40:06.962Z,2.5
2023-04-15T10:45:07.057Z,8.9
2023-04-15T10:50:06.564Z,10.6
2023-04-15T10:55:06.810Z,1.3
2023-04-15T11:00:07.038Z,2.7
2023-04-15T11:05:06.322Z,4.9
2023-04-15T11:10:06.289Z,4.1
2023-04-15T11:15:06.709Z,3.6
2023-04-15T11:20:06.866Z,3.6
2023-04-15T11:25:07.068Z,3.2
2023-04-15T11:30:06.415Z,4.2
2023-04-15T11:35:06.857Z,7.1
2023-04-15T11:40:07.104Z,4.4
2023-04-15T11:45:06.285Z,3.9
2023-04-15T11:50:06.547Z,1.6
2023-04-15T11:55:06.571Z,1.8
2023-04-15T12:00:07.240Z,3.4
2023-04-15T12:05:06.506Z,2.2
2023-04-15T12:10:06.893Z,2.8
2023-04-15T12:15:06.934Z,7.5
2023-04-15T12:20:06.820Z,7.3
2023-04-15T12:25:06.655Z,3.2
2023-04-15T12:30:06.955Z,2.1
2023-04-15T12:35:07.127Z,5.8
2023-04-15T12:40:06.365Z,2.3
2023-04-15T12:45:06.402Z,2.8
2023-04-15T12:50:06.611Z,2
2023-04-15T12:55:06.722Z,6.7
2023-04-15T13:00:07.203Z,3.2
2023-04-15T13:05:07.088Z,3
2023-04-15T13:10:06.409Z,14.2
2023-04-15T13:15:06.703Z,6.2
2023-04-15T13:20:06.885Z,1.8
2023-04-15T13:25:07.105Z,5.6
2023-04-15T13:30:06.231Z,9.6
2023-04-15T13:35:06.393Z,11.1
2023-04-15T13:40:06.757Z,5.1
2023-04-15T13:45:06.891Z,5.5
2023-04-15T13:50:06.966Z,7.1
2023-04-15T13:55:07.178Z,5.6
2023-04-15T14:00:06.516Z,6.9
2023-04-15T14:05:06.876Z,6.6
2023-04-15T14:10:07.006Z,3.8
2023-04-15T14:15:06.839Z,7.2
2023-04-15T14:20:06.916Z,4.5
2023-04-15T14:25:07.066Z,7.5
2023-04-15T14:30:07.175Z,4.4
2023-04-15T14:35:06.667Z,3.8
2023-04-15T14:40:06.779Z,7
2023-04-15T14:45:06.887Z,9.3
2023-04-15T14:50:06.310Z,7.9
2023-04-15T14:55:06.884Z,7.7
2023-04-15T15:00:07.209Z,14.1
2023-04-15T15:05:06.484Z,18
2023-04-15T15:10:06.875Z,12.9
2023-04-15T15:15:06.309Z,16.1
2023-04-15T15:20:06.640Z,14.8
2023-04-15T15:25:06.885Z,16.6
2023-04-15T15:30:07.001Z,17.6
2023-04-15T15:35:07.178Z,18.4
2023-04-15T15:40:06.452Z,14.4
2023-04-15T15:45:06.331Z,12.5
2023-04-15T15:50:06.916Z,11.9
2023-04-15T15:55:07.086Z,9.6
2023-04-15T16:00:06.732Z,8.9
2023-04-15T16:05:06.467Z,10.4
2023-04-15T16:10:06.711Z,11.1
2023-04-15T16:15:06.752Z,7.1
2023-04-15T16:20:06.896Z,6.8
2023-04-15T16:25:06.902Z,8.8
2023-04-15T16:30:07.131Z,11.3
2023-04-15T16:35:06.169Z,14.8
2023-04-15T16:40:06.229Z,8.5
2023-04-15T16:45:06.229Z,6.4
2023-04-15T16:50:06.472Z,8.6
2023-04-15T16:55:07.131Z,10.8
2023-04-15T17:00:07.285Z,40.4
2023-04-15T17:05:06.863Z,45.4
2023-04-15T17:10:06.944Z,17.7
2023-04-15T17:15:07.253Z,11.9
2023-04-15T17:20:06.305Z,10.4
2023-04-15T17:25:06.577Z,9.3
2023-04-15T17:30:06.842Z,10.9
2023-04-15T17:35:06.965Z,5
2023-04-15T17:40:07.114Z,10
2023-04-15T17:45:06.970Z,44.2
2023-04-15T17:50:07.081Z,66.7
2023-04-15T17:55:06.351Z,38.3
2023-04-15T18:00:06.880Z,30
2023-04-15T18:05:06.456Z,32
2023-04-15T18:10:06.755Z,40.7
2023-04-15T18:15:06.874Z,64.9
2023-04-15T18:20:06.565Z,40.7
2023-04-15T18:25:06.830Z,57
2023-04-15T18:30:07.113Z,62
2023-04-15T18:35:06.577Z,58.9
2023-04-15T18:40:06.778Z,67.6
2023-04-15T18:45:07.101Z,61.2
2023-04-15T18:50:06.377Z,48.4
2023-04-15T18:55:06.426Z,45.7
2023-04-15T19:00:06.819Z,36.3
2023-04-15T19:05:06.764Z,52.5
2023-04-15T19:10:06.959Z,66.2
2023-04-15T19:15:07.116Z,100.8
2023-04-15T19:20:06.407Z,67.3
2023-04-15T19:25:07.154Z,55.7
2023-04-15T19:30:07.231Z,74.7
2023-04-15T19:35:06.382Z,45.9
2023-04-15T19:40:06.565Z,42.2
2023-04-15T19:45:06.657Z,55.5
2023-04-15T19:50:07.021Z,59.1
2023-04-15T19:55:06.279Z,51.9
2023-04-15T20:00:06.659Z,43.7
2023-04-15T20:05:07.132Z,30.5
2023-04-15T20:10:06.319Z,40
2023-04-15T20:15:06.515Z,30.6
2023-04-15T20:20:06.672Z,22.6
2023-04-15T20:25:07.016Z,24.9
2023-04-15T20:30:07.149Z,30.2
2023-04-15T20:35:06.340Z,34.9
2023-04-15T20:40:06.556Z,33.4
2023-04-15T20:45:06.442Z,19
2023-04-15T20:50:06.660Z,26.3
2023-04-15T20:55:06.764Z,22.6
2023-04-15T21:00:07.098Z,22.9
2023-04-15T21:05:06.220Z,22.5
2023-04-15T21:10:06.257Z,24.8
2023-04-15T21:15:06.344Z,25.6
2023-04-15T21:20:06.417Z,16.8
2023-04-15T21:25:06.668Z,20.3
2023-04-15T21:30:06.861Z,17.7
2023-04-15T21:35:06.980Z,31.5
2023-04-15T21:40:06.246Z,24.6
2023-04-15T21:45:06.405Z,19
2023-04-15T21:50:06.500Z,22.6
2023-04-15T21:55:06.740Z,19.8
2023-04-15T22:00:06.996Z,19.3
2023-04-15T22:05:07.002Z,23.1
2023-04-15T22:10:06.351Z,44.9
2023-04-15T22:15:06.727Z,29.6
2023-04-15T22:20:07.053Z,19.6
2023-04-15T22:25:06.275Z,15.7
2023-04-15T22:30:06.360Z,15.4
2023-04-15T22:35:06.741Z,19.5
2023-04-15T22:40:06.938Z,16.6
2023-04-15T22:45:06.964Z,16.3
2023-04-15T22:50:07.072Z,17.4
2023-04-15T22:55:07.190Z,23.4
2023-04-15T23:00:06.432Z,12
2023-04-15T23:05:08.156Z,17.8
2023-04-15T23:10:06.716Z,22
2023-04-15T23:15:07.203Z,13.4
2023-04-15T23:20:06.509Z,22.8
2023-04-15T23:25:06.619Z,16.3
2023-04-15T23:30:06.817Z,23.9
2023-04-15T23:35:06.957Z,21.9
2023-04-15T23:40:07.103Z,23.6
2023-04-15T23:45:07.226Z,24.7
2023-04-15T23:50:06.530Z,27.9
2023-04-15T23:55:06.666Z,25.5
